sensor_id;sensor_type;location;lat;lon;timestamp;P1;durP1;ratioP1;P2;durP2;ratioP2
55539;SDS011;41384;51.418;7.286;2023-04-29T00:00:59;30.52;;;15.82;;
55539;SDS011;41384;51.418;7.286;2023-04-29T00:03:24;30.20;;;16.05;;
55539;SDS011;41384;51.418;7.286;2023-04-29T00:05:52;26.75;;;14.95;;
55539;SDS011;41384;51.418;7.286;2023-04-29T00:08:18;28.83;;;15.90;;
55539;SDS011;41384;51.418;7.286;2023-04-29T00:10:45;32.55;;;17.85;;
55539;SDS011;41384;51.418;7.286;2023-04-29T00:13:10;28.17;;;16.23;;
55539;SDS011;41384;51.418;7.286;2023-04-29T00:15:36;33.83;;;17.98;;
55539;SDS011;41384;51.418;7.286;2023-04-29T00:18:03;34.20;;;17.58;;
55539;SDS011;41384;51.418;7.286;2023-04-29T00:20:28;34.63;;;18.55;;
55539;SDS011;41384;51.418;7.286;2023-04-29T00:22:53;30.75;;;17.38;;
55539;SDS011;41384;51.418;7.286;2023-04-29T00:25:19;31.08;;;16.90;;
55539;SDS011;41384;51.418;7.286;2023-04-29T00:27:44;33.03;;;18.67;;
55539;SDS011;41384;51.418;7.286;2023-04-29T00:30:09;34.67;;;17.95;;
55539;SDS011;41384;51.418;7.286;2023-04-29T00:32:35;35.38;;;19.08;;
55539;SDS011;41384;51.418;7.286;2023-04-29T00:35:00;35.10;;;19.90;;
55539;SDS011;41384;51.418;7.286;2023-04-29T00:37:26;33.50;;;18.33;;
55539;SDS011;41384;51.418;7.286;2023-04-29T00:39:51;37.92;;;19.52;;
55539;SDS011;41384;51.418;7.286;2023-04-29T00:42:16;36.92;;;18.85;;
55539;SDS011;41384;51.418;7.286;2023-04-29T00:44:42;36.30;;;19.92;;
55539;SDS011;41384;51.418;7.286;2023-04-29T00:47:07;37.67;;;19.55;;
55539;SDS011;41384;51.418;7.286;2023-04-29T00:49:36;37.20;;;20.08;;
55539;SDS011;41384;51.418;7.286;2023-04-29T00:52:02;38.10;;;19.77;;
55539;SDS011;41384;51.418;7.286;2023-04-29T00:54:28;36.63;;;19.75;;
55539;SDS011;41384;51.418;7.286;2023-04-29T00:56:53;39.50;;;20.83;;
55539;SDS011;41384;51.418;7.286;2023-04-29T00:59:20;35.25;;;19.40;;
55539;SDS011;41384;51.418;7.286;2023-04-29T01:01:46;35.15;;;19.15;;
55539;SDS011;41384;51.418;7.286;2023-04-29T01:04:12;37.15;;;19.45;;
55539;SDS011;41384;51.418;7.286;2023-04-29T01:12:21;33.00;;;17.45;;
55539;SDS011;41384;51.418;7.286;2023-04-29T01:15:03;31.85;;;15.02;;
55539;SDS011;41384;51.418;7.286;2023-04-29T01:17:47;33.03;;;16.50;;
55539;SDS011;41384;51.418;7.286;2023-04-29T01:20:19;37.53;;;17.40;;
55539;SDS011;41384;51.418;7.286;2023-04-29T01:22:46;34.53;;;16.90;;
55539;SDS011;41384;51.418;7.286;2023-04-29T01:25:11;37.33;;;18.08;;
55539;SDS011;41384;51.418;7.286;2023-04-29T01:27:56;36.78;;;18.23;;
55539;SDS011;41384;51.418;7.286;2023-04-29T01:30:39;39.83;;;19.67;;
55539;SDS011;41384;51.418;7.286;2023-04-29T01:36:03;46.85;;;22.73;;
55539;SDS011;41384;51.418;7.286;2023-04-29T01:38:45;50.42;;;22.20;;
55539;SDS011;41384;51.418;7.286;2023-04-29T01:43:55;47.45;;;20.60;;
55539;SDS011;41384;51.418;7.286;2023-04-29T01:46:22;45.15;;;20.98;;
55539;SDS011;41384;51.418;7.286;2023-04-29T01:48:48;45.53;;;20.42;;
55539;SDS011;41384;51.418;7.286;2023-04-29T01:51:13;46.58;;;21.38;;
55539;SDS011;41384;51.418;7.286;2023-04-29T01:53:39;48.85;;;22.33;;
55539;SDS011;41384;51.418;7.286;2023-04-29T01:56:05;50.13;;;22.88;;
55539;SDS011;41384;51.418;7.286;2023-04-29T01:58:34;48.28;;;21.02;;
55539;SDS011;41384;51.418;7.286;2023-04-29T02:00:59;46.03;;;21.20;;
55539;SDS011;41384;51.418;7.286;2023-04-29T02:03:24;51.10;;;23.00;;
55539;SDS011;41384;51.418;7.286;2023-04-29T02:05:50;48.30;;;21.98;;
55539;SDS011;41384;51.418;7.286;2023-04-29T02:08:16;50.17;;;22.85;;
55539;SDS011;41384;51.418;7.286;2023-04-29T02:10:50;50.13;;;21.98;;
55539;SDS011;41384;51.418;7.286;2023-04-29T02:13:22;51.67;;;22.30;;
55539;SDS011;41384;51.418;7.286;2023-04-29T02:15:47;47.22;;;22.38;;
55539;SDS011;41384;51.418;7.286;2023-04-29T02:18:12;49.42;;;22.27;;
55539;SDS011;41384;51.418;7.286;2023-04-29T02:20:38;51.65;;;24.40;;
55539;SDS011;41384;51.418;7.286;2023-04-29T02:23:03;59.38;;;25.33;;
55539;SDS011;41384;51.418;7.286;2023-04-29T02:25:29;53.85;;;23.25;;
55539;SDS011;41384;51.418;7.286;2023-04-29T02:27:54;48.60;;;21.58;;
55539;SDS011;41384;51.418;7.286;2023-04-29T02:30:19;49.22;;;22.63;;
55539;SDS011;41384;51.418;7.286;2023-04-29T02:32:45;53.42;;;23.50;;
55539;SDS011;41384;51.418;7.286;2023-04-29T02:35:10;54.35;;;21.80;;
55539;SDS011;41384;51.418;7.286;2023-04-29T02:37:36;57.38;;;23.88;;
55539;SDS011;41384;51.418;7.286;2023-04-29T02:40:02;59.08;;;23.35;;
55539;SDS011;41384;51.418;7.286;2023-04-29T02:42:27;52.17;;;22.75;;
55539;SDS011;41384;51.418;7.286;2023-04-29T02:44:53;48.90;;;21.42;;
55539;SDS011;41384;51.418;7.286;2023-04-29T02:47:18;58.88;;;23.65;;
55539;SDS011;41384;51.418;7.286;2023-04-29T02:49:43;52.88;;;21.75;;
55539;SDS011;41384;51.418;7.286;2023-04-29T02:52:08;59.45;;;22.55;;
55539;SDS011;41384;51.418;7.286;2023-04-29T02:54:34;53.70;;;21.50;;
55539;SDS011;41384;51.418;7.286;2023-04-29T02:57:00;54.22;;;21.65;;
55539;SDS011;41384;51.418;7.286;2023-04-29T02:59:25;51.80;;;23.95;;
55539;SDS011;41384;51.418;7.286;2023-04-29T03:01:50;51.88;;;22.13;;
55539;SDS011;41384;51.418;7.286;2023-04-29T03:04:18;49.15;;;22.17;;
55539;SDS011;41384;51.418;7.286;2023-04-29T03:06:44;47.58;;;22.42;;
55539;SDS011;41384;51.418;7.286;2023-04-29T03:09:09;52.10;;;23.05;;
55539;SDS011;41384;51.418;7.286;2023-04-29T03:11:35;51.60;;;21.67;;
55539;SDS011;41384;51.418;7.286;2023-04-29T03:14:00;45.30;;;19.85;;
55539;SDS011;41384;51.418;7.286;2023-04-29T03:16:25;50.33;;;22.73;;
55539;SDS011;41384;51.418;7.286;2023-04-29T03:18:52;49.28;;;20.90;;
55539;SDS011;41384;51.418;7.286;2023-04-29T03:21:17;45.47;;;20.90;;
55539;SDS011;41384;51.418;7.286;2023-04-29T03:23:43;38.40;;;18.00;;
55539;SDS011;41384;51.418;7.286;2023-04-29T03:26:08;36.67;;;16.83;;
55539;SDS011;41384;51.418;7.286;2023-04-29T03:28:34;40.22;;;16.65;;
55539;SDS011;41384;51.418;7.286;2023-04-29T03:30:59;34.80;;;15.93;;
55539;SDS011;41384;51.418;7.286;2023-04-29T03:33:24;34.83;;;15.52;;
55539;SDS011;41384;51.418;7.286;2023-04-29T03:35:50;33.22;;;15.75;;
55539;SDS011;41384;51.418;7.286;2023-04-29T03:38:15;32.85;;;15.23;;
55539;SDS011;41384;51.418;7.286;2023-04-29T03:40:40;29.00;;;13.73;;
55539;SDS011;41384;51.418;7.286;2023-04-29T03:43:06;28.98;;;13.98;;
55539;SDS011;41384;51.418;7.286;2023-04-29T03:45:33;28.13;;;13.07;;
55539;SDS011;41384;51.418;7.286;2023-04-29T03:47:58;27.88;;;13.50;;
55539;SDS011;41384;51.418;7.286;2023-04-29T03:50:23;26.38;;;13.73;;
55539;SDS011;41384;51.418;7.286;2023-04-29T03:52:50;28.95;;;14.40;;
55539;SDS011;41384;51.418;7.286;2023-04-29T03:55:15;27.33;;;14.13;;
55539;SDS011;41384;51.418;7.286;2023-04-29T03:57:41;28.52;;;13.63;;
55539;SDS011;41384;51.418;7.286;2023-04-29T04:00:06;32.83;;;14.85;;
55539;SDS011;41384;51.418;7.286;2023-04-29T04:02:32;29.88;;;13.80;;
55539;SDS011;41384;51.418;7.286;2023-04-29T04:04:59;25.75;;;12.55;;
55539;SDS011;41384;51.418;7.286;2023-04-29T04:07:24;26.70;;;13.77;;
55539;SDS011;41384;51.418;7.286;2023-04-29T04:09:49;26.02;;;14.18;;
55539;SDS011;41384;51.418;7.286;2023-04-29T04:12:14;26.33;;;14.38;;
55539;SDS011;41384;51.418;7.286;2023-04-29T04:14:40;29.42;;;14.43;;
55539;SDS011;41384;51.418;7.286;2023-04-29T04:17:05;26.92;;;13.52;;
55539;SDS011;41384;51.418;7.286;2023-04-29T04:19:30;27.85;;;13.32;;
55539;SDS011;41384;51.418;7.286;2023-04-29T04:21:56;27.08;;;12.73;;
55539;SDS011;41384;51.418;7.286;2023-04-29T04:24:21;24.58;;;13.38;;
55539;SDS011;41384;51.418;7.286;2023-04-29T04:26:47;25.88;;;13.32;;
55539;SDS011;41384;51.418;7.286;2023-04-29T04:29:12;25.83;;;12.27;;
55539;SDS011;41384;51.418;7.286;2023-04-29T04:31:38;25.70;;;13.32;;
55539;SDS011;41384;51.418;7.286;2023-04-29T04:34:03;23.27;;;12.45;;
55539;SDS011;41384;51.418;7.286;2023-04-29T04:36:28;24.80;;;13.10;;
55539;SDS011;41384;51.418;7.286;2023-04-29T04:38:53;27.10;;;13.77;;
55539;SDS011;41384;51.418;7.286;2023-04-29T04:41:19;24.75;;;14.02;;
55539;SDS011;41384;51.418;7.286;2023-04-29T04:43:44;29.85;;;13.65;;
55539;SDS011;41384;51.418;7.286;2023-04-29T04:46:10;25.25;;;13.70;;
55539;SDS011;41384;51.418;7.286;2023-04-29T04:48:37;28.17;;;13.85;;
55539;SDS011;41384;51.418;7.286;2023-04-29T04:51:09;25.70;;;13.57;;
55539;SDS011;41384;51.418;7.286;2023-04-29T04:53:35;26.77;;;14.25;;
55539;SDS011;41384;51.418;7.286;2023-04-29T04:56:01;24.17;;;12.82;;
55539;SDS011;41384;51.418;7.286;2023-04-29T04:58:27;23.45;;;12.32;;
55539;SDS011;41384;51.418;7.286;2023-04-29T05:00:52;23.98;;;12.55;;
55539;SDS011;41384;51.418;7.286;2023-04-29T05:03:17;25.95;;;13.20;;
55539;SDS011;41384;51.418;7.286;2023-04-29T05:05:43;23.75;;;13.27;;
55539;SDS011;41384;51.418;7.286;2023-04-29T05:08:08;25.40;;;13.20;;
55539;SDS011;41384;51.418;7.286;2023-04-29T05:10:36;23.98;;;12.82;;
55539;SDS011;41384;51.418;7.286;2023-04-29T05:13:01;24.67;;;13.35;;
55539;SDS011;41384;51.418;7.286;2023-04-29T05:15:27;23.65;;;13.30;;
55539;SDS011;41384;51.418;7.286;2023-04-29T05:17:52;23.48;;;13.25;;
55539;SDS011;41384;51.418;7.286;2023-04-29T05:20:17;28.83;;;14.23;;
55539;SDS011;41384;51.418;7.286;2023-04-29T05:22:44;21.40;;;13.25;;
55539;SDS011;41384;51.418;7.286;2023-04-29T05:25:09;27.67;;;14.05;;
55539;SDS011;41384;51.418;7.286;2023-04-29T05:27:35;22.85;;;13.27;;
55539;SDS011;41384;51.418;7.286;2023-04-29T05:30:00;28.17;;;14.25;;
55539;SDS011;41384;51.418;7.286;2023-04-29T05:32:26;27.67;;;14.57;;
55539;SDS011;41384;51.418;7.286;2023-04-29T05:34:51;28.60;;;14.20;;
55539;SDS011;41384;51.418;7.286;2023-04-29T05:37:16;26.52;;;14.07;;
55539;SDS011;41384;51.418;7.286;2023-04-29T05:39:42;26.27;;;14.05;;
55539;SDS011;41384;51.418;7.286;2023-04-29T05:42:07;28.02;;;15.48;;
55539;SDS011;41384;51.418;7.286;2023-04-29T05:44:32;25.17;;;14.32;;
55539;SDS011;41384;51.418;7.286;2023-04-29T05:46:57;22.77;;;13.57;;
55539;SDS011;41384;51.418;7.286;2023-04-29T05:49:23;28.17;;;15.55;;
55539;SDS011;41384;51.418;7.286;2023-04-29T05:51:48;27.10;;;14.93;;
55539;SDS011;41384;51.418;7.286;2023-04-29T05:54:13;32.08;;;16.92;;
55539;SDS011;41384;51.418;7.286;2023-04-29T05:56:39;27.80;;;14.43;;
55539;SDS011;41384;51.418;7.286;2023-04-29T05:59:05;25.17;;;15.13;;
55539;SDS011;41384;51.418;7.286;2023-04-29T06:01:30;27.17;;;15.00;;
55539;SDS011;41384;51.418;7.286;2023-04-29T06:03:56;26.90;;;14.30;;
55539;SDS011;41384;51.418;7.286;2023-04-29T06:06:22;26.65;;;14.18;;
55539;SDS011;41384;51.418;7.286;2023-04-29T06:08:47;26.35;;;14.00;;
55539;SDS011;41384;51.418;7.286;2023-04-29T06:11:13;22.90;;;14.07;;
55539;SDS011;41384;51.418;7.286;2023-04-29T06:13:38;24.25;;;14.45;;
55539;SDS011;41384;51.418;7.286;2023-04-29T06:16:04;27.10;;;13.98;;
55539;SDS011;41384;51.418;7.286;2023-04-29T06:18:29;25.80;;;13.68;;
55539;SDS011;41384;51.418;7.286;2023-04-29T06:20:55;27.88;;;14.90;;
55539;SDS011;41384;51.418;7.286;2023-04-29T06:23:20;26.40;;;14.60;;
55539;SDS011;41384;51.418;7.286;2023-04-29T06:25:45;25.73;;;14.20;;
55539;SDS011;41384;51.418;7.286;2023-04-29T06:28:10;26.33;;;14.43;;
55539;SDS011;41384;51.418;7.286;2023-04-29T06:30:36;25.17;;;14.20;;
55539;SDS011;41384;51.418;7.286;2023-04-29T06:33:01;27.60;;;15.13;;
55539;SDS011;41384;51.418;7.286;2023-04-29T06:35:26;26.23;;;14.75;;
55539;SDS011;41384;51.418;7.286;2023-04-29T06:37:51;24.45;;;14.00;;
55539;SDS011;41384;51.418;7.286;2023-04-29T06:40:17;24.90;;;14.15;;
55539;SDS011;41384;51.418;7.286;2023-04-29T06:42:42;25.55;;;14.00;;
55539;SDS011;41384;51.418;7.286;2023-04-29T06:45:07;25.63;;;13.57;;
55539;SDS011;41384;51.418;7.286;2023-04-29T06:47:33;25.48;;;14.13;;
55539;SDS011;41384;51.418;7.286;2023-04-29T06:49:58;25.35;;;14.07;;
55539;SDS011;41384;51.418;7.286;2023-04-29T06:52:23;26.48;;;14.32;;
55539;SDS011;41384;51.418;7.286;2023-04-29T06:54:49;25.55;;;14.32;;
55539;SDS011;41384;51.418;7.286;2023-04-29T06:57:14;26.52;;;14.82;;
55539;SDS011;41384;51.418;7.286;2023-04-29T06:59:39;28.30;;;15.55;;
55539;SDS011;41384;51.418;7.286;2023-04-29T07:02:05;27.05;;;14.05;;
55539;SDS011;41384;51.418;7.286;2023-04-29T07:04:30;27.77;;;15.70;;
55539;SDS011;41384;51.418;7.286;2023-04-29T07:06:55;23.83;;;14.27;;
55539;SDS011;41384;51.418;7.286;2023-04-29T07:09:21;27.83;;;14.85;;
55539;SDS011;41384;51.418;7.286;2023-04-29T07:11:47;27.13;;;15.10;;
55539;SDS011;41384;51.418;7.286;2023-04-29T07:14:13;23.70;;;13.63;;
55539;SDS011;41384;51.418;7.286;2023-04-29T07:16:38;25.20;;;13.43;;
55539;SDS011;41384;51.418;7.286;2023-04-29T07:19:03;31.00;;;14.25;;
55539;SDS011;41384;51.418;7.286;2023-04-29T07:21:29;26.05;;;14.30;;
55539;SDS011;41384;51.418;7.286;2023-04-29T07:23:55;24.48;;;14.48;;
55539;SDS011;41384;51.418;7.286;2023-04-29T07:26:20;25.98;;;14.52;;
55539;SDS011;41384;51.418;7.286;2023-04-29T07:28:46;24.13;;;14.55;;
55539;SDS011;41384;51.418;7.286;2023-04-29T07:31:12;25.45;;;14.82;;
55539;SDS011;41384;51.418;7.286;2023-04-29T07:33:38;28.02;;;15.27;;
55539;SDS011;41384;51.418;7.286;2023-04-29T07:36:03;27.70;;;15.50;;
55539;SDS011;41384;51.418;7.286;2023-04-29T07:38:29;26.50;;;14.60;;
55539;SDS011;41384;51.418;7.286;2023-04-29T07:40:55;24.05;;;13.48;;
55539;SDS011;41384;51.418;7.286;2023-04-29T07:43:20;24.27;;;14.65;;
55539;SDS011;41384;51.418;7.286;2023-04-29T07:45:45;25.65;;;13.63;;
55539;SDS011;41384;51.418;7.286;2023-04-29T07:48:11;24.15;;;14.30;;
55539;SDS011;41384;51.418;7.286;2023-04-29T07:50:36;26.63;;;14.52;;
55539;SDS011;41384;51.418;7.286;2023-04-29T07:53:03;28.13;;;14.85;;
55539;SDS011;41384;51.418;7.286;2023-04-29T07:55:28;25.13;;;14.55;;
55539;SDS011;41384;51.418;7.286;2023-04-29T07:57:54;32.08;;;14.88;;
55539;SDS011;41384;51.418;7.286;2023-04-29T08:00:20;29.40;;;15.07;;
55539;SDS011;41384;51.418;7.286;2023-04-29T08:02:49;25.27;;;14.88;;
55539;SDS011;41384;51.418;7.286;2023-04-29T08:05:18;29.10;;;15.40;;
55539;SDS011;41384;51.418;7.286;2023-04-29T08:07:45;28.10;;;14.88;;
55539;SDS011;41384;51.418;7.286;2023-04-29T08:10:14;27.45;;;13.48;;
55539;SDS011;41384;51.418;7.286;2023-04-29T08:12:40;23.73;;;14.35;;
55539;SDS011;41384;51.418;7.286;2023-04-29T08:15:06;28.70;;;16.27;;
55539;SDS011;41384;51.418;7.286;2023-04-29T08:17:31;28.10;;;14.75;;
55539;SDS011;41384;51.418;7.286;2023-04-29T08:19:57;28.10;;;15.77;;
55539;SDS011;41384;51.418;7.286;2023-04-29T08:22:22;27.65;;;16.42;;
55539;SDS011;41384;51.418;7.286;2023-04-29T08:24:47;31.13;;;15.60;;
55539;SDS011;41384;51.418;7.286;2023-04-29T08:27:13;35.35;;;17.92;;
55539;SDS011;41384;51.418;7.286;2023-04-29T08:29:39;30.67;;;16.33;;
55539;SDS011;41384;51.418;7.286;2023-04-29T08:32:05;29.02;;;16.83;;
55539;SDS011;41384;51.418;7.286;2023-04-29T08:34:30;34.95;;;18.58;;
55539;SDS011;41384;51.418;7.286;2023-04-29T08:36:57;35.67;;;19.40;;
55539;SDS011;41384;51.418;7.286;2023-04-29T08:39:22;38.05;;;19.27;;
55539;SDS011;41384;51.418;7.286;2023-04-29T08:41:48;33.30;;;18.05;;
55539;SDS011;41384;51.418;7.286;2023-04-29T08:44:15;37.90;;;19.23;;
55539;SDS011;41384;51.418;7.286;2023-04-29T08:46:41;35.88;;;19.40;;
55539;SDS011;41384;51.418;7.286;2023-04-29T08:49:07;36.33;;;19.73;;
55539;SDS011;41384;51.418;7.286;2023-04-29T08:51:33;42.10;;;19.77;;
55539;SDS011;41384;51.418;7.286;2023-04-29T08:53:59;44.03;;;20.00;;
55539;SDS011;41384;51.418;7.286;2023-04-29T08:56:24;42.53;;;20.58;;
55539;SDS011;41384;51.418;7.286;2023-04-29T08:58:51;39.88;;;19.45;;
55539;SDS011;41384;51.418;7.286;2023-04-29T09:01:18;42.80;;;20.30;;
55539;SDS011;41384;51.418;7.286;2023-04-29T09:04:02;38.85;;;19.85;;
55539;SDS011;41384;51.418;7.286;2023-04-29T09:06:35;39.42;;;19.90;;
55539;SDS011;41384;51.418;7.286;2023-04-29T09:09:00;39.75;;;19.33;;
55539;SDS011;41384;51.418;7.286;2023-04-29T09:11:27;42.13;;;19.42;;
55539;SDS011;41384;51.418;7.286;2023-04-29T09:13:57;41.40;;;20.52;;
55539;SDS011;41384;51.418;7.286;2023-04-29T09:16:25;41.90;;;21.27;;
55539;SDS011;41384;51.418;7.286;2023-04-29T09:18:51;42.30;;;20.63;;
55539;SDS011;41384;51.418;7.286;2023-04-29T09:21:20;49.53;;;20.67;;
55539;SDS011;41384;51.418;7.286;2023-04-29T09:23:46;49.17;;;22.02;;
55539;SDS011;41384;51.418;7.286;2023-04-29T09:26:13;42.55;;;20.90;;
55539;SDS011;41384;51.418;7.286;2023-04-29T09:28:39;43.70;;;21.42;;
55539;SDS011;41384;51.418;7.286;2023-04-29T09:31:07;43.05;;;19.60;;
55539;SDS011;41384;51.418;7.286;2023-04-29T09:36:34;45.58;;;21.33;;
55539;SDS011;41384;51.418;7.286;2023-04-29T09:39:03;41.78;;;20.67;;
55539;SDS011;41384;51.418;7.286;2023-04-29T09:44:05;39.05;;;19.42;;
55539;SDS011;41384;51.418;7.286;2023-04-29T09:46:32;38.08;;;19.73;;
55539;SDS011;41384;51.418;7.286;2023-04-29T09:49:02;41.70;;;19.85;;
55539;SDS011;41384;51.418;7.286;2023-04-29T09:51:31;47.75;;;20.88;;
55539;SDS011;41384;51.418;7.286;2023-04-29T09:53:57;46.10;;;21.52;;
55539;SDS011;41384;51.418;7.286;2023-04-29T09:56:23;45.88;;;20.80;;
55539;SDS011;41384;51.418;7.286;2023-04-29T09:58:52;40.90;;;20.20;;
55539;SDS011;41384;51.418;7.286;2023-04-29T10:01:19;46.20;;;20.83;;
55539;SDS011;41384;51.418;7.286;2023-04-29T10:03:46;44.80;;;20.75;;
55539;SDS011;41384;51.418;7.286;2023-04-29T10:06:14;40.38;;;19.83;;
55539;SDS011;41384;51.418;7.286;2023-04-29T10:08:40;40.63;;;20.30;;
55539;SDS011;41384;51.418;7.286;2023-04-29T10:11:08;41.53;;;19.83;;
55539;SDS011;41384;51.418;7.286;2023-04-29T10:13:35;41.58;;;20.02;;
55539;SDS011;41384;51.418;7.286;2023-04-29T10:18:52;39.30;;;19.77;;
55539;SDS011;41384;51.418;7.286;2023-04-29T10:21:29;37.28;;;20.05;;
55539;SDS011;41384;51.418;7.286;2023-04-29T10:23:56;36.25;;;19.88;;
55539;SDS011;41384;51.418;7.286;2023-04-29T10:26:23;37.03;;;19.98;;
55539;SDS011;41384;51.418;7.286;2023-04-29T10:28:51;40.08;;;21.00;;
55539;SDS011;41384;51.418;7.286;2023-04-29T10:31:27;38.80;;;20.52;;
55539;SDS011;41384;51.418;7.286;2023-04-29T10:33:57;38.17;;;19.35;;
55539;SDS011;41384;51.418;7.286;2023-04-29T10:36:26;38.75;;;20.48;;
55539;SDS011;41384;51.418;7.286;2023-04-29T10:38:55;35.95;;;18.48;;
55539;SDS011;41384;51.418;7.286;2023-04-29T10:41:26;40.42;;;19.30;;
55539;SDS011;41384;51.418;7.286;2023-04-29T10:43:55;37.28;;;19.40;;
55539;SDS011;41384;51.418;7.286;2023-04-29T10:46:24;44.58;;;19.30;;
55539;SDS011;41384;51.418;7.286;2023-04-29T10:48:55;35.90;;;19.13;;
55539;SDS011;41384;51.418;7.286;2023-04-29T10:51:31;43.08;;;20.17;;
55539;SDS011;41384;51.418;7.286;2023-04-29T10:53:58;37.28;;;19.88;;
55539;SDS011;41384;51.418;7.286;2023-04-29T10:59:02;37.72;;;19.92;;
55539;SDS011;41384;51.418;7.286;2023-04-29T11:01:49;33.75;;;19.08;;
55539;SDS011;41384;51.418;7.286;2023-04-29T11:04:17;35.55;;;18.33;;
55539;SDS011;41384;51.418;7.286;2023-04-29T11:06:45;33.55;;;18.50;;
55539;SDS011;41384;51.418;7.286;2023-04-29T11:09:23;52.08;;;18.65;;
55539;SDS011;41384;51.418;7.286;2023-04-29T11:14:23;35.65;;;18.15;;
55539;SDS011;41384;51.418;7.286;2023-04-29T11:16:51;41.47;;;19.65;;
55539;SDS011;41384;51.418;7.286;2023-04-29T11:19:17;31.05;;;17.70;;
55539;SDS011;41384;51.418;7.286;2023-04-29T11:21:43;31.02;;;17.10;;
55539;SDS011;41384;51.418;7.286;2023-04-29T11:24:10;35.13;;;17.02;;
55539;SDS011;41384;51.418;7.286;2023-04-29T11:26:37;27.27;;;15.95;;
55539;SDS011;41384;51.418;7.286;2023-04-29T11:29:03;32.47;;;16.83;;
55539;SDS011;41384;51.418;7.286;2023-04-29T11:31:32;28.45;;;16.77;;
55539;SDS011;41384;51.418;7.286;2023-04-29T11:33:58;29.55;;;16.80;;
55539;SDS011;41384;51.418;7.286;2023-04-29T11:36:24;27.92;;;15.65;;
55539;SDS011;41384;51.418;7.286;2023-04-29T11:38:51;26.17;;;16.00;;
55539;SDS011;41384;51.418;7.286;2023-04-29T11:41:17;25.40;;;15.23;;
55539;SDS011;41384;51.418;7.286;2023-04-29T11:43:44;26.85;;;14.60;;
55539;SDS011;41384;51.418;7.286;2023-04-29T11:46:14;24.52;;;15.95;;
55539;SDS011;41384;51.418;7.286;2023-04-29T11:48:47;27.33;;;16.00;;
55539;SDS011;41384;51.418;7.286;2023-04-29T11:51:13;26.27;;;15.82;;
55539;SDS011;41384;51.418;7.286;2023-04-29T11:53:40;24.10;;;15.32;;
55539;SDS011;41384;51.418;7.286;2023-04-29T11:56:07;24.63;;;15.15;;
55539;SDS011;41384;51.418;7.286;2023-04-29T11:58:34;24.25;;;15.27;;
55539;SDS011;41384;51.418;7.286;2023-04-29T12:00:59;24.30;;;14.13;;
55539;SDS011;41384;51.418;7.286;2023-04-29T12:03:25;22.35;;;14.55;;
55539;SDS011;41384;51.418;7.286;2023-04-29T12:05:51;22.42;;;15.18;;
55539;SDS011;41384;51.418;7.286;2023-04-29T12:08:18;23.23;;;13.98;;
55539;SDS011;41384;51.418;7.286;2023-04-29T12:10:50;22.10;;;13.75;;
55539;SDS011;41384;51.418;7.286;2023-04-29T12:13:16;24.20;;;14.60;;
55539;SDS011;41384;51.418;7.286;2023-04-29T12:15:43;19.13;;;13.32;;
55539;SDS011;41384;51.418;7.286;2023-04-29T12:18:10;22.63;;;12.52;;
55539;SDS011;41384;51.418;7.286;2023-04-29T12:20:36;22.02;;;12.88;;
55539;SDS011;41384;51.418;7.286;2023-04-29T12:23:12;18.35;;;12.60;;
55539;SDS011;41384;51.418;7.286;2023-04-29T12:25:39;19.98;;;12.15;;
55539;SDS011;41384;51.418;7.286;2023-04-29T12:28:11;20.23;;;12.77;;
55539;SDS011;41384;51.418;7.286;2023-04-29T12:30:37;19.85;;;11.88;;
55539;SDS011;41384;51.418;7.286;2023-04-29T12:33:02;16.25;;;11.48;;
55539;SDS011;41384;51.418;7.286;2023-04-29T12:35:27;16.33;;;11.43;;
55539;SDS011;41384;51.418;7.286;2023-04-29T12:37:53;17.80;;;11.48;;
55539;SDS011;41384;51.418;7.286;2023-04-29T12:40:18;18.95;;;12.32;;
55539;SDS011;41384;51.418;7.286;2023-04-29T12:42:44;20.52;;;11.23;;
55539;SDS011;41384;51.418;7.286;2023-04-29T12:45:29;20.42;;;12.25;;
55539;SDS011;41384;51.418;7.286;2023-04-29T12:47:56;17.23;;;11.45;;
55539;SDS011;41384;51.418;7.286;2023-04-29T12:50:28;16.75;;;10.68;;
55539;SDS011;41384;51.418;7.286;2023-04-29T12:52:55;19.35;;;10.75;;
55539;SDS011;41384;51.418;7.286;2023-04-29T12:55:21;15.43;;;10.05;;
55539;SDS011;41384;51.418;7.286;2023-04-29T12:57:46;16.08;;;10.75;;
55539;SDS011;41384;51.418;7.286;2023-04-29T13:00:12;15.77;;;9.93;;
55539;SDS011;41384;51.418;7.286;2023-04-29T13:02:38;15.77;;;9.55;;
55539;SDS011;41384;51.418;7.286;2023-04-29T13:05:03;16.50;;;10.07;;
55539;SDS011;41384;51.418;7.286;2023-04-29T13:07:29;13.88;;;9.40;;
55539;SDS011;41384;51.418;7.286;2023-04-29T13:09:54;16.10;;;9.75;;
55539;SDS011;41384;51.418;7.286;2023-04-29T13:12:20;15.32;;;10.25;;
55539;SDS011;41384;51.418;7.286;2023-04-29T13:14:45;15.18;;;9.63;;
55539;SDS011;41384;51.418;7.286;2023-04-29T13:17:10;16.13;;;9.60;;
55539;SDS011;41384;51.418;7.286;2023-04-29T13:19:36;14.25;;;10.27;;
55539;SDS011;41384;51.418;7.286;2023-04-29T13:22:01;14.82;;;9.32;;
55539;SDS011;41384;51.418;7.286;2023-04-29T13:24:26;12.95;;;8.98;;
55539;SDS011;41384;51.418;7.286;2023-04-29T13:26:51;11.50;;;8.73;;
55539;SDS011;41384;51.418;7.286;2023-04-29T13:29:18;12.48;;;8.48;;
55539;SDS011;41384;51.418;7.286;2023-04-29T13:31:43;12.68;;;9.13;;
55539;SDS011;41384;51.418;7.286;2023-04-29T13:34:08;14.88;;;9.05;;
55539;SDS011;41384;51.418;7.286;2023-04-29T13:36:34;13.88;;;9.60;;
55539;SDS011;41384;51.418;7.286;2023-04-29T13:38:59;11.15;;;8.07;;
55539;SDS011;41384;51.418;7.286;2023-04-29T13:41:25;12.52;;;8.70;;
55539;SDS011;41384;51.418;7.286;2023-04-29T13:43:51;12.07;;;7.95;;
55539;SDS011;41384;51.418;7.286;2023-04-29T13:46:16;14.75;;;8.88;;
55539;SDS011;41384;51.418;7.286;2023-04-29T13:48:41;12.93;;;8.65;;
55539;SDS011;41384;51.418;7.286;2023-04-29T13:51:07;14.07;;;9.07;;
55539;SDS011;41384;51.418;7.286;2023-04-29T13:53:32;12.85;;;9.35;;
55539;SDS011;41384;51.418;7.286;2023-04-29T13:55:58;11.57;;;8.52;;
55539;SDS011;41384;51.418;7.286;2023-04-29T13:58:23;13.13;;;8.68;;
55539;SDS011;41384;51.418;7.286;2023-04-29T14:00:48;14.60;;;9.35;;
55539;SDS011;41384;51.418;7.286;2023-04-29T14:03:13;12.07;;;8.20;;
55539;SDS011;41384;51.418;7.286;2023-04-29T14:05:39;12.98;;;8.82;;
55539;SDS011;41384;51.418;7.286;2023-04-29T14:08:05;12.25;;;8.82;;
55539;SDS011;41384;51.418;7.286;2023-04-29T14:10:30;13.23;;;9.02;;
55539;SDS011;41384;51.418;7.286;2023-04-29T14:12:55;12.43;;;8.13;;
55539;SDS011;41384;51.418;7.286;2023-04-29T14:15:21;10.90;;;8.02;;
55539;SDS011;41384;51.418;7.286;2023-04-29T14:17:46;12.32;;;8.20;;
55539;SDS011;41384;51.418;7.286;2023-04-29T14:20:14;11.82;;;7.78;;
55539;SDS011;41384;51.418;7.286;2023-04-29T14:22:39;12.57;;;8.68;;
55539;SDS011;41384;51.418;7.286;2023-04-29T14:25:04;11.88;;;8.38;;
55539;SDS011;41384;51.418;7.286;2023-04-29T14:27:30;14.85;;;8.77;;
55539;SDS011;41384;51.418;7.286;2023-04-29T14:29:56;12.43;;;8.73;;
55539;SDS011;41384;51.418;7.286;2023-04-29T14:32:21;12.88;;;9.25;;
55539;SDS011;41384;51.418;7.286;2023-04-29T14:34:46;13.93;;;8.40;;
55539;SDS011;41384;51.418;7.286;2023-04-29T14:37:11;14.07;;;9.02;;
55539;SDS011;41384;51.418;7.286;2023-04-29T14:39:37;12.48;;;8.90;;
55539;SDS011;41384;51.418;7.286;2023-04-29T14:42:02;11.40;;;8.65;;
55539;SDS011;41384;51.418;7.286;2023-04-29T14:44:27;12.25;;;8.93;;